createdAt,value
2023-12-20T00:00:14.161Z,48.00
2023-12-20T00:02:40.810Z,48.00
2023-12-20T00:05:07.484Z,47.90
2023-12-20T00:07:34.328Z,47.90
2023-12-20T00:10:01.173Z,47.90
2023-12-20T00:12:27.879Z,48.10
2023-12-20T00:14:54.768Z,47.90
2023-12-20T00:17:21.414Z,48.10
2023-12-20T00:19:48.447Z,48.00
2023-12-20T00:22:15.213Z,48.00
2023-12-20T00:24:42.012Z,48.00
2023-12-20T00:27:08.686Z,48.10
2023-12-20T00:29:35.349Z,48.00
2023-12-20T00:32:02.000Z,48.00
2023-12-20T00:34:28.645Z,48.10
2023-12-20T00:36:55.545Z,48.00
2023-12-20T00:39:22.228Z,48.10
2023-12-20T00:41:48.888Z,48.10
2023-12-20T00:44:15.554Z,47.90
2023-12-20T00:46:42.227Z,48.10
2023-12-20T00:49:09.215Z,48.10
2023-12-20T00:51:36.009Z,48.20
2023-12-20T00:54:02.700Z,48.00
2023-12-20T00:56:29.341Z,48.00
2023-12-20T00:58:56.251Z,48.10
2023-12-20T01:01:23.016Z,48.20
2023-12-20T01:03:49.869Z,48.20
2023-12-20T01:06:16.662Z,48.20
2023-12-20T01:08:43.323Z,48.20
2023-12-20T01:11:10.225Z,48.10
2023-12-20T01:13:36.912Z,48.20
2023-12-20T01:16:03.588Z,48.20
2023-12-20T01:18:30.273Z,48.30
2023-12-20T01:20:57.190Z,48.10
2023-12-20T01:23:23.845Z,48.40
2023-12-20T01:25:50.505Z,48.20
2023-12-20T01:28:17.493Z,48.10
2023-12-20T01:30:44.453Z,48.20
2023-12-20T01:33:11.296Z,48.10
2023-12-20T01:35:38.247Z,48.20
2023-12-20T01:38:04.934Z,48.20
2023-12-20T01:40:31.682Z,48.10
2023-12-20T01:42:58.363Z,48.00
2023-12-20T01:45:25.053Z,48.20
2023-12-20T01:47:51.733Z,48.20
2023-12-20T01:50:18.409Z,48.30
2023-12-20T01:52:45.068Z,48.20
2023-12-20T01:55:11.764Z,48.20
2023-12-20T01:57:38.458Z,48.20
2023-12-20T02:00:05.127Z,48.20
2023-12-20T02:02:31.786Z,48.20
2023-12-20T02:04:58.641Z,48.10
2023-12-20T02:07:25.687Z,48.10
2023-12-20T02:09:52.467Z,48.30
2023-12-20T02:12:19.141Z,48.30
2023-12-20T02:14:45.788Z,48.20
2023-12-20T02:17:12.445Z,48.10
2023-12-20T02:19:39.405Z,48.10
2023-12-20T02:22:06.688Z,48.10
2023-12-20T02:24:33.388Z,48.20
2023-12-20T02:27:00.042Z,48.20
2023-12-20T02:29:26.741Z,48.20
2023-12-20T02:31:53.408Z,48.30
2023-12-20T02:34:20.124Z,48.20
2023-12-20T02:36:47.068Z,48.20
2023-12-20T02:39:13.732Z,48.40
2023-12-20T02:41:40.386Z,48.30
2023-12-20T02:44:07.038Z,48.40
2023-12-20T02:46:33.693Z,48.30
2023-12-20T02:49:00.408Z,48.40
2023-12-20T02:51:27.132Z,48.50
2023-12-20T02:54:12.126Z,48.40
2023-12-20T02:56:57.412Z,48.40
2023-12-20T02:59:42.712Z,48.40
2023-12-20T03:02:27.822Z,48.40
2023-12-20T03:05:12.954Z,48.30
2023-12-20T03:07:58.495Z,48.40
2023-12-20T03:10:43.830Z,48.50
2023-12-20T03:13:29.104Z,48.40
2023-12-20T03:16:14.704Z,48.40
2023-12-20T03:19:00.076Z,48.40
2023-12-20T03:21:45.161Z,48.40
2023-12-20T03:24:30.175Z,48.50
2023-12-20T03:27:15.184Z,48.40
2023-12-20T03:30:00.573Z,48.30
2023-12-20T03:32:46.105Z,48.40
2023-12-20T03:35:31.110Z,48.40
2023-12-20T03:38:16.084Z,48.50
2023-12-20T03:41:01.309Z,48.60
2023-12-20T03:43:46.403Z,48.40
2023-12-20T03:46:31.573Z,48.50
2023-12-20T03:49:16.910Z,48.50
2023-12-20T03:52:02.003Z,48.50
2023-12-20T03:54:47.157Z,48.40
2023-12-20T03:57:32.167Z,48.50
2023-12-20T04:00:17.499Z,48.40
2023-12-20T04:03:02.588Z,48.40
2023-12-20T04:05:47.723Z,48.50
2023-12-20T04:08:14.467Z,48.60
2023-12-20T04:10:41.161Z,48.30
2023-12-20T04:13:07.884Z,48.40
2023-12-20T04:15:34.648Z,48.50
2023-12-20T04:18:01.414Z,48.60
2023-12-20T04:20:28.107Z,48.50
2023-12-20T04:22:55.013Z,48.40
2023-12-20T04:25:21.821Z,48.40
2023-12-20T04:27:49.042Z,48.50
2023-12-20T04:30:16.080Z,48.50
2023-12-20T04:32:42.838Z,48.50
2023-12-20T04:35:09.645Z,48.40
2023-12-20T04:37:36.422Z,48.40
2023-12-20T04:40:03.192Z,48.50
2023-12-20T04:42:29.956Z,48.60
2023-12-20T04:44:56.668Z,48.50
2023-12-20T04:47:23.385Z,48.50
2023-12-20T04:49:50.154Z,48.40
2023-12-20T04:52:17.184Z,48.50
2023-12-20T04:54:45.137Z,48.40
2023-12-20T04:57:12.035Z,48.40
2023-12-20T04:59:38.733Z,48.50
2023-12-20T05:02:05.482Z,49.60
2023-12-20T05:04:32.267Z,48.40
2023-12-20T05:06:59.207Z,48.40
2023-12-20T05:09:25.939Z,48.50
2023-12-20T05:11:52.809Z,48.60
2023-12-20T05:14:19.524Z,48.60
2023-12-20T05:16:46.433Z,48.60
2023-12-20T05:19:13.220Z,48.60
2023-12-20T05:21:39.972Z,48.40
2023-12-20T05:24:06.684Z,48.60
2023-12-20T05:26:33.385Z,48.60
2023-12-20T05:29:00.075Z,48.60
2023-12-20T05:31:26.816Z,48.60
2023-12-20T05:33:53.660Z,48.60
2023-12-20T05:36:20.420Z,48.60
2023-12-20T05:38:47.121Z,48.50
2023-12-20T05:41:13.825Z,48.60
2023-12-20T05:43:40.727Z,48.60
2023-12-20T05:46:07.509Z,48.60
2023-12-20T05:48:34.290Z,48.60
2023-12-20T05:51:00.968Z,48.60
2023-12-20T05:53:27.652Z,48.60
2023-12-20T05:55:54.325Z,48.60
2023-12-20T05:58:21.047Z,48.80
2023-12-20T06:00:47.898Z,48.70
2023-12-20T06:03:14.672Z,48.70
2023-12-20T06:05:41.384Z,48.70
2023-12-20T06:08:08.069Z,48.70
2023-12-20T06:10:34.769Z,48.70
2023-12-20T06:13:01.728Z,48.70
2023-12-20T06:15:28.461Z,48.70
2023-12-20T06:17:55.204Z,48.70
2023-12-20T06:20:22.746Z,48.70
2023-12-20T06:22:49.493Z,48.70
2023-12-20T06:25:16.230Z,48.70
2023-12-20T06:27:43.006Z,48.70
2023-12-20T06:30:09.772Z,48.80
2023-12-20T06:32:36.493Z,48.60
2023-12-20T06:35:03.252Z,48.70
2023-12-20T06:37:30.251Z,48.70
2023-12-20T06:39:56.939Z,48.70
2023-12-20T06:42:23.667Z,48.90
2023-12-20T06:44:50.328Z,48.80
2023-12-20T06:47:17.014Z,48.80
2023-12-20T06:49:43.774Z,48.80
2023-12-20T06:52:10.496Z,48.80
2023-12-20T06:54:37.192Z,48.80
2023-12-20T06:57:03.981Z,48.80
2023-12-20T06:59:30.704Z,48.70
2023-12-20T07:01:57.486Z,48.70
2023-12-20T07:04:24.659Z,48.80
2023-12-20T07:06:51.513Z,48.70
2023-12-20T07:09:18.215Z,48.80
2023-12-20T07:11:44.901Z,48.70
2023-12-20T07:14:11.574Z,48.70
2023-12-20T07:16:38.270Z,48.70
2023-12-20T07:19:05.118Z,48.70
2023-12-20T07:21:32.031Z,48.70
2023-12-20T07:23:58.716Z,48.70
2023-12-20T07:26:25.472Z,48.70
2023-12-20T07:28:52.151Z,48.70
2023-12-20T07:31:18.904Z,48.60
2023-12-20T07:33:45.828Z,48.70
2023-12-20T07:36:12.691Z,48.70
2023-12-20T07:38:39.622Z,48.70
2023-12-20T07:41:06.313Z,48.70
2023-12-20T07:43:32.968Z,48.70
2023-12-20T07:45:59.940Z,48.70
2023-12-20T07:48:26.700Z,48.80
2023-12-20T07:50:53.438Z,48.70
2023-12-20T07:53:20.130Z,48.70
2023-12-20T07:55:47.029Z,48.80
2023-12-20T07:58:13.731Z,48.70
2023-12-20T08:00:40.419Z,48.70
2023-12-20T08:03:07.109Z,48.80
2023-12-20T08:05:33.815Z,48.70
2023-12-20T08:08:00.509Z,48.80
2023-12-20T08:10:27.229Z,48.70
2023-12-20T08:12:54.181Z,48.70
2023-12-20T08:15:20.887Z,48.70
2023-12-20T08:17:47.889Z,48.70
2023-12-20T08:20:19.881Z,48.70
2023-12-20T08:22:49.920Z,48.70
2023-12-20T08:25:16.653Z,48.70
2023-12-20T08:27:43.513Z,48.80
2023-12-20T08:30:10.522Z,48.70
2023-12-20T08:32:37.294Z,48.80
2023-12-20T08:35:04.091Z,48.60
2023-12-20T08:37:30.874Z,48.80
2023-12-20T08:39:57.646Z,48.70
2023-12-20T08:42:24.573Z,48.60
2023-12-20T08:44:51.252Z,48.70
2023-12-20T08:47:17.979Z,48.60
2023-12-20T08:49:44.803Z,48.60
2023-12-20T08:52:11.631Z,48.70
2023-12-20T08:54:38.592Z,48.60
2023-12-20T08:57:05.293Z,48.70
2023-12-20T08:59:31.989Z,48.70
2023-12-20T09:01:58.757Z,48.50
2023-12-20T09:04:25.576Z,48.60
2023-12-20T09:06:52.373Z,48.50
2023-12-20T09:09:19.123Z,48.60
2023-12-20T09:11:46.066Z,48.60
2023-12-20T09:14:12.732Z,48.60
2023-12-20T09:16:39.457Z,49.30
2023-12-20T09:19:06.220Z,49.60
2023-12-20T09:21:32.944Z,48.60
2023-12-20T09:23:59.706Z,48.70
2023-12-20T09:26:30.939Z,48.60
2023-12-20T09:28:57.641Z,48.50
2023-12-20T09:31:24.369Z,48.60
2023-12-20T09:33:51.426Z,48.60
2023-12-20T09:36:18.219Z,48.60
2023-12-20T09:38:46.858Z,48.60
2023-12-20T09:41:14.069Z,48.60
2023-12-20T09:43:40.758Z,48.60
2023-12-20T09:46:07.465Z,48.60
2023-12-20T09:48:34.191Z,48.60
2023-12-20T09:51:00.880Z,48.70
2023-12-20T09:53:27.574Z,48.60
2023-12-20T09:55:54.346Z,48.70
2023-12-20T09:58:21.091Z,48.70
2023-12-20T10:00:48.378Z,48.60
2023-12-20T10:03:16.308Z,48.70
2023-12-20T10:05:43.169Z,49.60
2023-12-20T10:08:10.184Z,48.60
2023-12-20T10:10:42.605Z,48.60
2023-12-20T10:13:14.875Z,48.60
2023-12-20T10:15:41.807Z,48.60
2023-12-20T10:18:10.550Z,48.50
2023-12-20T10:20:37.541Z,48.60
2023-12-20T10:23:04.335Z,48.50
2023-12-20T10:25:31.066Z,48.60
2023-12-20T10:27:57.887Z,48.60
2023-12-20T10:30:24.599Z,48.60
2023-12-20T10:32:51.841Z,48.60
2023-12-20T10:35:18.572Z,48.50
2023-12-20T10:37:45.497Z,48.50
2023-12-20T10:40:12.441Z,48.60
2023-12-20T10:42:39.133Z,48.60
2023-12-20T10:45:05.878Z,48.60
2023-12-20T10:47:32.612Z,48.60
2023-12-20T10:49:59.488Z,48.60
2023-12-20T10:52:26.381Z,48.50
2023-12-20T10:54:53.227Z,48.60
2023-12-20T10:57:20.009Z,48.60
2023-12-20T10:59:48.757Z,48.70
2023-12-20T11:02:17.639Z,48.60
2023-12-20T11:04:44.510Z,48.70
2023-12-20T11:07:11.373Z,48.50
2023-12-20T11:09:38.161Z,48.50
2023-12-20T11:12:04.908Z,48.60
2023-12-20T11:14:31.601Z,48.60
2023-12-20T11:16:58.322Z,48.60
2023-12-20T11:19:25.086Z,48.60
2023-12-20T11:21:51.820Z,48.50
2023-12-20T11:24:18.741Z,48.60
2023-12-20T11:26:45.468Z,48.40
2023-12-20T11:29:12.130Z,48.60
2023-12-20T11:31:38.875Z,48.60
2023-12-20T11:34:05.642Z,48.50
2023-12-20T11:36:32.424Z,48.50
2023-12-20T11:38:59.479Z,48.40
2023-12-20T11:41:26.182Z,48.50
2023-12-20T11:43:52.896Z,48.60
2023-12-20T11:46:19.609Z,48.50
2023-12-20T11:48:46.397Z,48.40
2023-12-20T11:51:13.167Z,48.40
2023-12-20T11:53:39.859Z,48.70
2023-12-20T11:56:06.574Z,48.60
2023-12-20T11:58:33.315Z,48.60
2023-12-20T12:01:00.143Z,48.60
2023-12-20T12:03:27.145Z,48.60
2023-12-20T12:05:53.933Z,48.60
2023-12-20T12:08:20.685Z,48.60
2023-12-20T12:10:47.376Z,48.50
2023-12-20T12:13:14.110Z,48.60
2023-12-20T12:15:40.886Z,48.60
2023-12-20T12:18:07.641Z,48.70
2023-12-20T12:20:35.895Z,48.70
2023-12-20T12:23:04.362Z,48.60
2023-12-20T12:25:31.290Z,48.60
2023-12-20T12:27:58.107Z,48.60
2023-12-20T12:30:24.823Z,48.50
2023-12-20T12:32:51.708Z,48.60
2023-12-20T12:35:18.477Z,48.50
2023-12-20T12:37:45.390Z,48.60
2023-12-20T12:40:12.325Z,48.60
2023-12-20T12:42:39.136Z,48.60
2023-12-20T12:45:05.796Z,48.60
2023-12-20T12:47:32.761Z,48.60
2023-12-20T12:49:59.583Z,48.70
2023-12-20T12:52:26.457Z,48.60
2023-12-20T12:54:53.263Z,48.50
2023-12-20T12:57:19.957Z,48.60
2023-12-20T12:59:46.670Z,48.70
2023-12-20T13:02:13.380Z,48.50
2023-12-20T13:04:40.200Z,48.60
2023-12-20T13:07:07.132Z,48.60
2023-12-20T13:09:34.102Z,48.40
2023-12-20T13:12:00.811Z,48.60
2023-12-20T13:14:27.509Z,48.50
2023-12-20T13:16:54.198Z,48.60
2023-12-20T13:19:21.025Z,48.60
2023-12-20T13:21:47.806Z,48.50
2023-12-20T13:24:14.496Z,48.60
2023-12-20T13:26:41.168Z,48.70
2023-12-20T13:29:07.851Z,48.60
2023-12-20T13:31:34.824Z,48.50
2023-12-20T13:34:01.668Z,48.60
2023-12-20T13:36:28.465Z,48.70
2023-12-20T13:38:55.163Z,48.60
2023-12-20T13:41:21.878Z,48.70
2023-12-20T13:43:48.568Z,48.70
2023-12-20T13:46:15.374Z,48.60
2023-12-20T13:48:42.349Z,48.60
2023-12-20T13:51:09.053Z,48.70
2023-12-20T13:53:35.738Z,48.70
2023-12-20T13:56:02.518Z,48.60
2023-12-20T13:58:29.278Z,48.60
2023-12-20T14:00:56.068Z,48.60
2023-12-20T14:03:22.816Z,48.70
2023-12-20T14:05:49.747Z,48.70
2023-12-20T14:08:16.538Z,48.60
2023-12-20T14:10:43.242Z,48.60
2023-12-20T14:13:10.075Z,48.50
2023-12-20T14:15:36.763Z,48.50
2023-12-20T14:18:03.458Z,48.60
2023-12-20T14:20:30.140Z,48.60
2023-12-20T14:22:57.467Z,48.70
2023-12-20T14:25:24.285Z,48.60
2023-12-20T14:27:51.421Z,48.50
2023-12-20T14:30:18.613Z,49.60
2023-12-20T14:32:45.698Z,48.50
2023-12-20T14:35:12.805Z,48.60
2023-12-20T14:37:39.748Z,48.40
2023-12-20T14:40:06.469Z,48.50
2023-12-20T14:42:33.176Z,48.50
2023-12-20T14:44:59.861Z,48.60
2023-12-20T14:47:26.572Z,48.50
2023-12-20T14:49:53.334Z,48.60
2023-12-20T14:52:20.119Z,48.60
2023-12-20T14:54:46.895Z,48.60
2023-12-20T14:57:13.575Z,48.70
2023-12-20T14:59:40.257Z,48.60
2023-12-20T15:02:07.064Z,48.60
2023-12-20T15:04:33.937Z,48.60
2023-12-20T15:07:00.745Z,48.70
2023-12-20T15:09:27.419Z,48.60
2023-12-20T15:11:54.094Z,48.60
2023-12-20T15:14:21.210Z,48.60
2023-12-20T15:16:47.929Z,48.70
2023-12-20T15:19:14.918Z,48.60
2023-12-20T15:21:44.130Z,48.60
2023-12-20T15:24:12.781Z,48.70
2023-12-20T15:26:39.461Z,48.60
2023-12-20T15:29:06.394Z,48.60
2023-12-20T15:31:33.103Z,48.70
2023-12-20T15:34:00.225Z,48.60
2023-12-20T15:36:27.001Z,48.70
2023-12-20T15:38:53.937Z,48.70
2023-12-20T15:41:20.626Z,48.60
2023-12-20T15:43:47.565Z,48.70
2023-12-20T15:46:14.250Z,48.70
2023-12-20T15:48:41.056Z,48.70
2023-12-20T15:51:07.786Z,48.60
2023-12-20T15:53:34.475Z,48.70
2023-12-20T15:56:01.373Z,48.70
2023-12-20T15:58:28.274Z,48.70
2023-12-20T16:00:55.086Z,48.70
2023-12-20T16:03:24.996Z,48.70
2023-12-20T16:05:52.763Z,48.70
2023-12-20T16:08:19.566Z,48.70
2023-12-20T16:10:46.268Z,48.70
2023-12-20T16:13:12.976Z,48.70
2023-12-20T16:15:39.674Z,48.70
2023-12-20T16:18:06.384Z,48.70
2023-12-20T16:20:33.088Z,48.70
2023-12-20T16:22:59.789Z,48.70
2023-12-20T16:25:26.509Z,48.70
2023-12-20T16:27:53.461Z,48.70
2023-12-20T16:30:20.476Z,48.70
2023-12-20T16:32:47.241Z,48.70
2023-12-20T16:35:14.285Z,48.70
2023-12-20T16:37:41.017Z,48.70
2023-12-20T16:40:08.092Z,48.70
2023-12-20T16:42:34.850Z,48.60
2023-12-20T16:45:01.535Z,48.70
2023-12-20T16:47:28.270Z,48.70
2023-12-20T16:49:55.083Z,48.70
2023-12-20T16:52:21.864Z,48.60
2023-12-20T16:54:48.572Z,48.60
2023-12-20T16:57:15.305Z,48.70
2023-12-20T16:59:41.985Z,48.60
2023-12-20T17:02:08.833Z,48.70
2023-12-20T17:04:35.845Z,48.70
2023-12-20T17:07:02.671Z,48.80
2023-12-20T17:09:32.072Z,48.60
2023-12-20T17:11:58.935Z,48.70
2023-12-20T17:14:25.594Z,48.70
2023-12-20T17:16:52.320Z,48.70
2023-12-20T17:19:19.083Z,48.70
2023-12-20T17:21:45.927Z,48.60
2023-12-20T17:24:12.608Z,48.90
2023-12-20T17:26:39.268Z,48.70
2023-12-20T17:29:05.954Z,48.70
2023-12-20T17:31:32.706Z,48.70
2023-12-20T17:33:59.490Z,48.60
2023-12-20T17:36:26.497Z,48.70
2023-12-20T17:38:53.191Z,48.70
2023-12-20T17:41:20.106Z,48.70
2023-12-20T17:43:46.831Z,48.60
2023-12-20T17:46:13.829Z,48.70
2023-12-20T17:48:40.572Z,48.80
2023-12-20T17:51:07.546Z,48.70
2023-12-20T17:53:34.244Z,48.70
2023-12-20T17:56:01.231Z,48.80
2023-12-20T17:58:27.964Z,48.80
2023-12-20T18:00:54.968Z,48.70
2023-12-20T18:03:21.700Z,48.80
2023-12-20T18:05:48.673Z,48.70
2023-12-20T18:08:15.383Z,48.80
2023-12-20T18:10:42.520Z,48.70
2023-12-20T18:13:09.297Z,48.60
2023-12-20T18:15:36.010Z,48.70
2023-12-20T18:18:02.771Z,48.70
2023-12-20T18:20:29.664Z,48.60
2023-12-20T18:22:56.538Z,48.80
2023-12-20T18:25:23.244Z,48.80
2023-12-20T18:27:50.094Z,48.80
2023-12-20T18:30:17.694Z,48.70
2023-12-20T18:32:45.381Z,48.80
2023-12-20T18:35:12.529Z,48.70
2023-12-20T18:37:39.672Z,48.70
2023-12-20T18:40:06.399Z,48.80
2023-12-20T18:42:33.352Z,48.80
2023-12-20T18:45:00.040Z,48.90
2023-12-20T18:47:26.713Z,48.70
2023-12-20T18:49:53.546Z,48.80
2023-12-20T18:52:20.646Z,48.70
2023-12-20T18:54:47.372Z,48.70
2023-12-20T18:57:14.288Z,48.80
2023-12-20T18:59:40.989Z,48.80
2023-12-20T19:02:08.008Z,48.80
2023-12-20T19:04:34.754Z,48.80
2023-12-20T19:07:01.780Z,48.80
2023-12-20T19:09:28.516Z,48.80
2023-12-20T19:11:55.227Z,48.70
2023-12-20T19:14:21.899Z,48.90
2023-12-20T19:16:48.838Z,48.80
2023-12-20T19:19:15.690Z,48.80
2023-12-20T19:21:42.458Z,48.80
2023-12-20T19:24:09.148Z,48.60
2023-12-20T19:26:35.838Z,48.70
2023-12-20T19:29:02.519Z,48.80
2023-12-20T19:31:29.212Z,48.70
2023-12-20T19:33:55.975Z,49.80
2023-12-20T19:36:22.726Z,48.80
2023-12-20T19:38:49.419Z,48.70
2023-12-20T19:41:16.150Z,48.70
2023-12-20T19:43:42.847Z,48.90
2023-12-20T19:46:09.557Z,48.80
2023-12-20T19:48:36.292Z,48.90
2023-12-20T19:51:03.011Z,48.90
2023-12-20T19:53:29.706Z,48.80
2023-12-20T19:55:56.390Z,48.90
2023-12-20T19:58:23.209Z,48.70
2023-12-20T20:00:55.280Z,48.90
2023-12-20T20:03:22.936Z,48.80
2023-12-20T20:05:49.843Z,48.80
2023-12-20T20:08:16.687Z,48.80
2023-12-20T20:10:43.377Z,48.80
2023-12-20T20:13:10.124Z,48.80
2023-12-20T20:15:36.813Z,48.80
2023-12-20T20:18:03.591Z,48.70
2023-12-20T20:20:30.334Z,48.80
2023-12-20T20:22:57.019Z,48.70
2023-12-20T20:25:25.259Z,48.80
2023-12-20T20:27:53.298Z,48.80
2023-12-20T20:30:20.054Z,48.80
2023-12-20T20:32:49.900Z,48.90
2023-12-20T20:35:18.386Z,48.90
2023-12-20T20:37:45.380Z,48.80
2023-12-20T20:40:12.291Z,48.80
2023-12-20T20:42:38.988Z,48.90
2023-12-20T20:45:05.661Z,48.80
2023-12-20T20:47:32.609Z,48.90
2023-12-20T20:49:59.465Z,48.90
2023-12-20T20:52:26.245Z,48.90
2023-12-20T20:54:52.956Z,48.80
2023-12-20T20:57:19.647Z,48.90
2023-12-20T20:59:46.590Z,48.90
2023-12-20T21:02:13.272Z,48.90
2023-12-20T21:04:40.215Z,48.90
2023-12-20T21:07:06.920Z,48.90
2023-12-20T21:09:33.895Z,48.90
2023-12-20T21:12:00.590Z,48.90
2023-12-20T21:14:27.526Z,48.90
2023-12-20T21:16:54.230Z,48.90
2023-12-20T21:19:21.253Z,48.90
2023-12-20T21:21:48.000Z,48.90
2023-12-20T21:24:15.030Z,48.90
2023-12-20T21:26:41.940Z,48.90
2023-12-20T21:29:08.888Z,48.70
2023-12-20T21:31:35.572Z,48.90
2023-12-20T21:34:02.537Z,48.90
2023-12-20T21:36:29.280Z,48.90
2023-12-20T21:38:55.974Z,48.90
2023-12-20T21:41:23.719Z,48.90
2023-12-20T21:43:50.769Z,48.90
2023-12-20T21:46:17.472Z,48.90
2023-12-20T21:48:44.173Z,48.90
2023-12-20T21:51:10.861Z,48.90
2023-12-20T21:53:37.536Z,48.90
2023-12-20T21:56:04.234Z,48.90
2023-12-20T21:58:30.981Z,48.80
2023-12-20T22:00:57.827Z,48.80
2023-12-20T22:03:24.632Z,48.90
2023-12-20T22:05:51.353Z,48.90
2023-12-20T22:08:18.079Z,48.90
2023-12-20T22:10:44.765Z,48.90
2023-12-20T22:13:11.510Z,48.90
2023-12-20T22:15:38.216Z,48.80
2023-12-20T22:18:04.896Z,48.90
2023-12-20T22:20:31.692Z,48.90
2023-12-20T22:22:58.411Z,48.90
2023-12-20T22:25:25.168Z,48.90
2023-12-20T22:27:51.964Z,48.90
2023-12-20T22:30:18.725Z,48.90
2023-12-20T22:32:45.477Z,48.90
2023-12-20T22:35:12.190Z,48.90
2023-12-20T22:37:38.901Z,48.90
2023-12-20T22:40:05.696Z,48.90
2023-12-20T22:42:32.405Z,49.00
2023-12-20T22:44:59.118Z,48.90
2023-12-20T22:47:25.837Z,48.90
2023-12-20T22:49:52.573Z,49.00
2023-12-20T22:52:19.297Z,48.90
2023-12-20T22:54:45.980Z,48.90
2023-12-20T22:57:12.668Z,48.90
2023-12-20T22:59:39.399Z,48.90
2023-12-20T23:02:06.218Z,49.00
2023-12-20T23:04:33.020Z,48.90
2023-12-20T23:06:59.785Z,48.90
2023-12-20T23:09:26.489Z,48.90
2023-12-20T23:11:53.175Z,48.90
2023-12-20T23:14:19.856Z,48.90
2023-12-20T23:16:46.534Z,49.00
2023-12-20T23:19:13.316Z,48.90
2023-12-20T23:21:40.090Z,49.00
2023-12-20T23:24:06.782Z,50.00
2023-12-20T23:26:33.484Z,48.90
2023-12-20T23:29:00.198Z,49.00
2023-12-20T23:31:26.932Z,50.00
2023-12-20T23:33:53.838Z,49.00
2023-12-20T23:36:20.652Z,49.00
2023-12-20T23:38:47.382Z,48.90
2023-12-20T23:41:14.106Z,49.10
2023-12-20T23:43:40.834Z,50.00
2023-12-20T23:46:07.726Z,48.90
2023-12-20T23:48:34.491Z,49.00
2023-12-20T23:51:01.259Z,49.00
2023-12-20T23:53:27.953Z,49.00
2023-12-20T23:55:54.630Z,49.00
2023-12-20T23:58:22.342Z,48.90
